Aviation Digital Data Service (ADDS)

Output produced by METARs form (1630 UTC 23 February 2017)
found at http://aviationweather.gov/adds/metars/
 
KARA 231553Z 15006KT 10SM CLR 21/14 A2985 RMK AO2 SLP109 T02110144